Vida, Montana
Current Conditions -  °F | °C
As of 2:53 AM on Tuesday 27 Jan 2015 (Local Time) from KOLF Reporting Station
Clear Clear  
Wind Chill: 29°   Ceiling: Unl
Heat Index: 29°   Visibility: 10mi
Dew Point: 26°   Wind: 3mph
Humidity: 89%   Direction: 270°W
Pressure: 29.84"   Gusts: NA
Location:  47.83°N, 105.49°W
Report Text: KOLF 270953Z AUTO 27003KT 10SM CLR M02/M03 A2984 RMK AO2 SLP121 T10171033
Loading
Personal Weather Stations






























Interactive Weather Map New forecast layout! Learn more

10-Day Weather Forecast

Advertisements
Track Severe Weather on mobile